Time;durP1;ratioP1;P1;durP2;ratioP2;P2;SDS_P1;SDS_P2;PMS_P1;PMS_P2;Temp;Humidity;BMP_temperature;BMP_pressure;BME280_temperature;BME280_humidity;BME280_pressure;Samples;Min_cycle;Max_cycle;Signal;HPM_P1;HPM_P2
2021/11/18 00:02:21;;;;;;;;;53.00;44.00;;;;;11.43;64.29;102448.25;4962763;28;45418;-48
2021/11/18 00:04:48;;;;;;;;;49.75;40.00;;;;;11.42;64.30;102457.00;4962552;28;45153;-46
2021/11/18 00:07:14;;;;;;;;;42.00;33.00;;;;;11.43;64.21;102456.16;4962656;28;45358;-44
2021/11/18 00:09:39;;;;;;;;;47.75;38.00;;;;;11.41;64.32;102460.50;4962282;28;45313;-52
2021/11/18 00:12:06;;;;;;;;;42.00;35.50;;;;;11.38;64.25;102448.19;4962487;28;45155;-46
2021/11/18 00:14:32;;;;;;;;;48.75;39.00;;;;;11.36;64.20;102452.59;4962414;28;45400;-48
2021/11/18 00:16:57;;;;;;;;;44.25;37.00;;;;;11.36;64.28;102458.72;4962345;28;45391;-47
2021/11/18 00:19:23;;;;;;;;;47.50;37.75;;;;;11.35;64.19;102451.69;4962277;28;45422;-48
2021/11/18 00:21:48;;;;;;;;;41.00;34.00;;;;;11.33;64.19;102456.06;4962445;28;45306;-47
2021/11/18 00:24:13;;;;;;;;;49.75;40.75;;;;;11.32;64.39;102453.41;4963388;28;45395;-47
2021/11/18 00:26:40;;;;;;;;;48.25;38.00;;;;;11.31;64.37;102464.81;4974592;28;45317;-45
2021/11/18 00:29:06;;;;;;;;;52.00;42.00;;;;;11.30;64.29;102463.03;4962231;28;45388;-46
2021/11/18 00:31:34;;;;;;;;;29.75;22.25;;;;;11.28;64.29;102465.66;4965317;28;45558;-48
2021/11/18 00:34:00;;;;;;;;;51.50;40.50;;;;;11.25;64.43;102460.34;4964993;28;45509;-48
2021/11/18 00:36:26;;;;;;;;;39.50;35.00;;;;;11.27;64.39;102468.25;4962141;28;45395;-47
2021/11/18 00:38:52;;;;;;;;;40.00;33.25;;;;;11.24;64.46;102461.22;4960457;28;45633;-49
2021/11/18 00:41:18;;;;;;;;;41.00;33.75;;;;;11.24;64.35;102445.44;4962733;28;45488;-45
2021/11/18 00:43:44;;;;;;;;;44.50;35.25;;;;;11.22;64.38;102437.53;4962000;28;45258;-47
2021/11/18 00:46:11;;;;;;;;;51.50;41.00;;;;;11.20;64.19;102430.50;4961966;28;45402;-44
2021/11/18 00:48:36;;;;;;;;;48.50;37.25;;;;;11.19;64.47;102424.34;4960664;28;45279;-44
2021/11/18 00:51:05;;;;;;;;;39.50;36.50;;;;;11.17;64.41;102426.06;4961956;28;45243;-46
2021/11/18 00:53:31;;;;;;;;;46.50;36.75;;;;;11.09;64.43;102426.88;4961489;28;45270;-45
2021/11/18 00:55:57;;;;;;;;;38.00;34.00;;;;;11.14;64.52;102423.41;4961821;28;46363;-50
2021/11/18 00:58:22;;;;;;;;;37.25;31.75;;;;;11.13;64.41;102418.13;4961053;28;45369;-44
2021/11/18 01:00:50;;;;;;;;;47.50;38.75;;;;;11.12;64.37;102432.13;4961471;28;45395;-46
2021/11/18 01:03:19;;;;;;;;;37.00;32.75;;;;;11.11;64.39;102430.41;4961511;28;45540;-45
2021/11/18 01:05:48;;;;;;;;;44.25;34.25;;;;;11.08;64.43;102438.25;4961543;28;45187;-47
2021/11/18 01:08:14;;;;;;;;;51.00;38.25;;;;;11.06;64.42;102441.72;4961275;28;45505;-45
2021/11/18 01:10:53;;;;;;;;;46.25;38.25;;;;;11.04;64.50;102430.34;4967846;28;45340;-47
2021/11/18 01:13:22;;;;;;;;;44.50;35.00;;;;;11.03;64.49;102428.56;4976328;28;46026;-45
2021/11/18 01:15:48;;;;;;;;;32.25;29.75;;;;;11.01;64.35;102434.69;4961462;28;46223;-45
2021/11/18 01:18:14;;;;;;;;;44.50;35.75;;;;;10.99;64.30;102433.75;4961621;28;45432;-48
2021/11/18 01:20:41;;;;;;;;;40.50;35.50;;;;;10.98;64.13;102440.78;4970393;28;45332;-47
2021/11/18 01:23:11;;;;;;;;;37.75;34.75;;;;;10.97;64.35;102441.66;4961393;28;45525;-46
2021/11/18 01:25:37;;;;;;;;;42.25;36.00;;;;;10.95;64.20;102448.63;4973833;28;45329;-46
2021/11/18 01:28:04;;;;;;;;;41.75;34.50;;;;;10.93;64.34;102452.09;4962182;28;45380;-46
2021/11/18 01:30:32;;;;;;;;;41.25;35.25;;;;;10.92;64.35;102456.50;4961471;28;45329;-46
2021/11/18 01:32:58;;;;;;;;;44.75;37.25;;;;;10.91;64.29;102449.47;4963768;28;45242;-48
2021/11/18 01:35:25;;;;;;;;;41.00;35.00;;;;;10.88;64.41;102452.94;4961321;28;45239;-45
2021/11/18 01:37:50;;;;;;;;;60.00;45.00;;;;;10.86;64.31;102451.16;4961379;28;45314;-47
2021/11/18 01:40:20;;;;;;;;;51.75;41.75;;;;;10.84;64.40;102463.41;4961097;28;45314;-48
2021/11/18 01:42:46;;;;;;;;;49.00;40.00;;;;;10.82;64.48;102460.75;4961275;28;45324;-49
2021/11/18 01:45:13;;;;;;;;;52.75;41.00;;;;;10.81;64.47;102460.75;4961007;28;46511;-45
2021/11/18 01:47:40;;;;;;;;;55.75;44.75;;;;;10.79;64.55;102466.00;4961395;28;45258;-46
2021/11/18 01:50:08;;;;;;;;;49.50;41.00;;;;;10.77;64.36;102462.44;4970654;28;45194;-46
2021/11/18 01:52:34;;;;;;;;;52.25;41.50;;;;;10.73;64.54;102464.16;4960854;28;45481;-48
2021/11/18 01:55:00;;;;;;;;;49.50;38.75;;;;;10.69;64.54;102465.00;4960517;28;46486;-44
2021/11/18 01:57:28;;;;;;;;;53.00;43.00;;;;;10.69;64.49;102464.09;4961075;28;45392;-45
2021/11/18 01:59:54;;;;;;;;;49.50;39.25;;;;;10.66;64.37;102467.56;4960981;28;45307;-45
2021/11/18 02:02:23;;;;;;;;;48.25;37.00;;;;;10.65;64.52;102478.06;4961022;28;45183;-46
2021/11/18 02:04:53;;;;;;;;;44.25;38.00;;;;;10.62;64.37;102475.41;4960691;28;45404;-45
2021/11/18 02:07:19;;;;;;;;;48.50;39.00;;;;;10.60;64.59;102482.38;4959565;28;45490;-48
2021/11/18 02:09:48;;;;;;;;;48.25;39.50;;;;;10.58;64.54;102474.47;4960639;28;45267;-48
2021/11/18 02:12:33;;;;;;;;;48.00;39.50;;;;;10.58;64.43;102477.09;4964121;28;45646;-48
2021/11/18 02:14:59;;;;;;;;;45.25;38.25;;;;;10.55;64.48;102479.69;4964339;28;45247;-48
2021/11/18 02:17:27;;;;;;;;;49.00;40.50;;;;;10.52;64.66;102477.91;4964082;28;45405;-46
2021/11/18 02:19:59;;;;;;;;;49.25;40.00;;;;;10.52;64.41;102482.28;4964530;28;45339;-47
2021/11/18 02:22:25;;;;;;;;;50.00;38.25;;;;;10.50;64.38;102482.28;4963956;28;45238;-49
2021/11/18 02:24:53;;;;;;;;;47.50;38.50;;;;;10.50;64.49;102484.91;4970234;28;46199;-49
2021/11/18 02:27:21;;;;;;;;;49.00;39.50;;;;;10.47;64.60;102482.22;4983526;28;45480;-46
2021/11/18 02:29:49;;;;;;;;;51.00;39.00;;;;;10.46;64.36;102487.44;4964301;28;45345;-44
2021/11/18 02:32:21;;;;;;;;;48.75;38.75;;;;;10.45;64.37;102483.06;4966735;28;45448;-44
2021/11/18 02:34:48;;;;;;;;;48.00;37.50;;;;;10.43;64.62;102484.75;4964070;28;45468;-47
2021/11/18 02:37:15;;;;;;;;;47.00;38.00;;;;;10.40;64.53;102486.50;4963988;28;45525;-44
2021/11/18 02:39:40;;;;;;;;;45.25;36.25;;;;;10.37;64.48;102483.81;4963834;28;45325;-49
2021/11/18 02:42:07;;;;;;;;;41.25;35.25;;;;;10.37;64.55;102477.69;4964796;28;45306;-46
2021/11/18 02:44:33;;;;;;;;;45.75;36.00;;;;;10.34;64.45;102467.97;4963896;28;45305;-46
2021/11/18 02:47:00;;;;;;;;;47.25;37.50;;;;;10.32;64.64;102464.44;4976721;28;45476;-44
2021/11/18 02:49:26;;;;;;;;;38.75;34.00;;;;;10.31;64.47;102462.66;4964051;28;45297;-46
2021/11/18 02:51:51;;;;;;;;;37.50;34.25;;;;;10.28;64.42;102467.91;4963474;28;45356;-47
2021/11/18 02:54:17;;;;;;;;;42.25;36.75;;;;;10.26;64.47;102472.22;4971390;28;45405;-45
2021/11/18 02:56:42;;;;;;;;;42.50;35.00;;;;;10.24;64.50;102487.97;4968584;28;45743;-48
2021/11/18 02:59:08;;;;;;;;;45.00;36.25;;;;;10.20;64.66;102490.53;4963788;28;45476;-48
2021/11/18 03:01:46;;;;;;;;;42.25;34.50;;;;;10.18;64.47;102502.78;4963498;28;45436;-45
2021/11/18 03:04:11;;;;;;;;;44.75;37.75;;;;;10.18;64.65;102494.91;4963556;28;46900;-47
2021/11/18 03:06:37;;;;;;;;;44.50;38.50;;;;;10.15;64.69;102492.19;4966405;28;45255;-44
2021/11/18 03:09:04;;;;;;;;;44.50;37.50;;;;;10.13;64.41;102494.81;4973308;28;45402;-45
2021/11/18 03:11:30;;;;;;;;;40.50;35.25;;;;;10.11;64.42;102493.03;4962163;28;45421;-48
2021/11/18 03:13:56;;;;;;;;;42.25;35.25;;;;;10.10;64.57;102500.03;4963439;28;45511;-47
2021/11/18 03:16:22;;;;;;;;;48.50;37.75;;;;;10.09;64.71;102501.75;4963189;28;45345;-44
2021/11/18 03:18:48;;;;;;;;;47.75;37.25;;;;;10.09;64.53;102499.13;4963649;28;45327;-48
2021/11/18 03:21:16;;;;;;;;;46.00;37.50;;;;;10.06;64.49;102490.31;4962923;28;45405;-46
2021/11/18 03:23:43;;;;;;;;;40.00;34.50;;;;;10.03;64.43;102493.78;4962329;28;45332;-48
2021/11/18 03:26:10;;;;;;;;;42.75;35.75;;;;;10.03;64.51;102501.66;4976753;28;45218;-45
2021/11/18 03:28:36;;;;;;;;;43.25;34.25;;;;;10.02;64.56;102499.00;4963236;28;45252;-45
2021/11/18 03:31:04;;;;;;;;;37.75;33.50;;;;;9.99;64.71;102497.22;4978274;28;45471;-47
2021/11/18 03:33:40;;;;;;;;;44.75;36.25;;;;;9.99;64.51;102506.88;4971591;28;45286;-49
2021/11/18 03:36:07;;;;;;;;;48.50;36.50;;;;;9.98;64.43;102505.09;4962939;28;45367;-45
2021/11/18 03:38:33;;;;;;;;;45.50;36.00;;;;;9.94;64.81;102506.78;4963060;28;45307;-47
2021/11/18 03:41:06;;;;;;;;;46.25;35.75;;;;;9.95;64.47;102511.19;4963164;28;45622;-48
2021/11/18 03:43:40;;;;;;;;;40.50;35.00;;;;;9.92;64.75;102504.13;4962837;28;45351;-47
2021/11/18 03:46:08;;;;;;;;;44.00;35.75;;;;;9.90;64.60;102510.22;4963187;28;45339;-48
2021/11/18 03:48:34;;;;;;;;;56.00;44.75;;;;;9.89;64.60;102513.69;4962918;28;45171;-45
2021/11/18 03:51:01;;;;;;;;;49.75;39.25;;;;;9.88;64.73;102517.16;4962706;28;45493;-46
2021/11/18 03:53:28;;;;;;;;;54.75;44.00;;;;;9.87;64.82;102512.78;4962335;28;46399;-44
2021/11/18 03:55:53;;;;;;;;;49.75;39.25;;;;;9.82;64.78;102507.44;4962691;28;45322;-45
2021/11/18 03:58:19;;;;;;;;;53.75;42.75;;;;;9.82;64.65;102503.94;4962845;28;45420;-47
2021/11/18 04:00:45;;;;;;;;;47.75;39.75;;;;;9.79;64.71;102498.66;4962651;28;45527;-49
2021/11/18 04:03:12;;;;;;;;;50.50;38.00;;;;;9.78;64.74;102500.38;4962420;28;48141;-47
2021/11/18 04:05:41;;;;;;;;;45.75;37.25;;;;;9.74;64.46;102507.31;4962698;28;45175;-50
2021/11/18 04:08:08;;;;;;;;;49.75;41.00;;;;;9.73;64.47;102512.53;4962387;28;45381;-47
2021/11/18 04:10:35;;;;;;;;;44.00;36.50;;;;;9.70;64.40;102504.63;4972487;28;45497;-46
2021/11/18 04:13:01;;;;;;;;;50.00;39.75;;;;;9.67;64.31;102502.81;4964979;28;45482;-44
2021/11/18 04:15:28;;;;;;;;;47.50;39.00;;;;;9.65;64.47;102503.63;4962469;28;45309;-44
2021/11/18 04:17:54;;;;;;;;;49.00;38.25;;;;;9.63;64.64;102510.63;4962502;28;45179;-47
2021/11/18 04:20:19;;;;;;;;;49.25;40.25;;;;;9.60;64.49;102519.31;4961076;28;45251;-43
2021/11/18 04:22:48;;;;;;;;;45.75;38.75;;;;;9.56;64.66;102523.63;4962178;28;46015;-44
2021/11/18 04:25:18;;;;;;;;;44.25;38.00;;;;;9.55;64.39;102531.47;4970329;28;45409;-48
2021/11/18 04:27:44;;;;;;;;;60.25;47.75;;;;;9.52;64.43;102536.66;4965984;28;45156;-45
2021/11/18 04:30:12;;;;;;;;;47.50;39.25;;;;;9.50;64.61;102539.25;4960981;28;45284;-45
2021/11/18 04:32:38;;;;;;;;;40.00;32.50;;;;;9.47;64.41;102539.22;4965034;28;45329;-47
2021/11/18 04:35:05;;;;;;;;;44.25;38.00;;;;;9.45;64.61;102540.91;4971498;28;45500;-46
2021/11/18 04:37:30;;;;;;;;;43.00;36.00;;;;;9.44;64.60;102555.75;4965484;28;45456;-45
2021/11/18 04:39:55;;;;;;;;;42.25;36.00;;;;;9.41;64.39;102544.34;4961918;28;45417;-46
2021/11/18 04:42:21;;;;;;;;;40.50;35.25;;;;;9.39;64.32;102549.53;4963098;28;46978;-44
2021/11/18 04:44:47;;;;;;;;;56.25;45.25;;;;;9.37;64.35;102551.25;4962250;28;45259;-45
2021/11/18 04:47:13;;;;;;;;;41.50;35.75;;;;;9.35;64.61;102547.72;4962020;28;45489;-46
2021/11/18 04:49:41;;;;;;;;;57.00;44.50;;;;;9.30;64.34;102546.75;4961873;28;45171;-48
2021/11/18 04:52:07;;;;;;;;;42.50;37.00;;;;;9.32;64.72;102562.50;4961473;28;46349;-45
2021/11/18 04:54:33;;;;;;;;;59.75;47.25;;;;;9.24;64.40;102554.47;4961459;28;45325;-49
2021/11/18 04:56:58;;;;;;;;;49.50;39.00;;;;;9.28;64.62;102569.41;4961832;28;45484;-46
2021/11/18 04:59:24;;;;;;;;;57.50;46.50;;;;;9.26;64.38;102572.03;4961885;28;45349;-46
2021/11/18 05:01:49;;;;;;;;;45.50;39.25;;;;;9.25;64.60;102569.38;4961692;28;45353;-45
2021/11/18 05:04:15;;;;;;;;;49.75;39.50;;;;;9.22;64.25;102570.19;4961900;28;45432;-48
2021/11/18 05:06:40;;;;;;;;;50.75;39.50;;;;;9.19;64.55;102571.88;4961833;28;45333;-46
2021/11/18 05:09:08;;;;;;;;;46.75;38.00;;;;;9.18;64.33;102578.88;4961430;28;45261;-45
2021/11/18 05:11:34;;;;;;;;;42.25;37.25;;;;;9.18;64.46;102583.22;4974535;28;46077;-43
2021/11/18 05:14:00;;;;;;;;;44.00;39.25;;;;;9.16;64.48;102577.94;4961711;28;45180;-48
2021/11/18 05:16:27;;;;;;;;;55.50;45.25;;;;;9.15;64.39;102572.66;4961559;28;45163;-47
2021/11/18 05:18:52;;;;;;;;;47.75;39.50;;;;;9.14;64.58;102573.50;4961524;28;45612;-45
2021/11/18 05:21:21;;;;;;;;;61.75;49.25;;;;;9.12;64.29;102583.97;4961369;28;45393;-48
2021/11/18 05:23:47;;;;;;;;;49.75;39.25;;;;;9.03;64.36;102574.19;4961244;28;45895;-46
2021/11/18 05:26:16;;;;;;;;;73.50;56.00;;;;;9.08;64.54;102576.88;4975249;28;45238;-44
2021/11/18 05:28:43;;;;;;;;;39.50;34.75;;;;;9.06;64.53;102573.34;4967846;28;45757;-47
2021/11/18 05:31:10;;;;;;;;;50.75;42.75;;;;;9.05;64.58;102582.06;4961232;28;46083;-44
2021/11/18 05:33:35;;;;;;;;;49.25;38.75;;;;;9.03;64.78;102583.75;4977360;28;45422;-47
2021/11/18 05:36:01;;;;;;;;;45.50;39.00;;;;;9.00;64.47;102587.22;4963613;28;45359;-46
2021/11/18 05:38:27;;;;;;;;;47.75;38.50;;;;;8.98;64.52;102586.31;4961093;28;45465;-45
2021/11/18 05:40:54;;;;;;;;;51.25;40.25;;;;;8.99;64.61;102582.81;4961879;28;45268;-46
2021/11/18 05:43:20;;;;;;;;;47.00;37.75;;;;;8.96;64.45;102580.13;4961212;28;45264;-44
2021/11/18 05:45:46;;;;;;;;;33.00;30.75;;;;;8.95;64.67;102580.97;4960747;28;45611;-46
2021/11/18 05:48:15;;;;;;;;;48.50;39.75;;;;;8.95;64.50;102580.97;4961280;28;45539;-45
2021/11/18 05:50:46;;;;;;;;;41.25;35.50;;;;;8.94;64.51;102587.06;4960505;28;45444;-46
2021/11/18 05:53:13;;;;;;;;;44.75;37.25;;;;;8.92;64.32;102586.16;4959524;28;45405;-45
2021/11/18 05:55:39;;;;;;;;;42.00;36.50;;;;;8.92;64.43;102588.78;4974229;28;45264;-45
2021/11/18 05:58:05;;;;;;;;;47.25;36.50;;;;;8.90;64.63;102596.59;4960922;28;45305;-47
2021/11/18 06:00:31;;;;;;;;;49.00;36.25;;;;;8.90;64.43;102599.22;4960740;28;45299;-43
2021/11/18 06:02:58;;;;;;;;;48.25;37.00;;;;;8.89;64.37;102602.72;4960941;28;45251;-43
2021/11/18 06:05:25;;;;;;;;;47.75;38.25;;;;;8.86;64.58;102593.91;4961150;28;45199;-47
2021/11/18 06:07:51;;;;;;;;;45.25;37.50;;;;;8.88;64.58;102606.19;4960580;28;45445;-42
2021/11/18 06:10:18;;;;;;;;;47.00;37.00;;;;;8.86;64.47;102605.25;4960804;28;45418;-43
2021/11/18 06:12:43;;;;;;;;;48.50;37.00;;;;;8.86;64.71;102601.75;4961321;28;45384;-47
2021/11/18 06:15:09;;;;;;;;;42.50;37.00;;;;;8.87;64.79;102600.91;4973170;28;45368;-45
2021/11/18 06:17:36;;;;;;;;;39.00;35.00;;;;;8.87;64.59;102600.91;4960757;28;45472;-46
2021/11/18 06:20:03;;;;;;;;;41.00;35.75;;;;;8.84;64.46;102604.34;4959547;28;47076;-46
2021/11/18 06:22:29;;;;;;;;;44.00;36.25;;;;;8.86;64.42;102607.00;4960527;28;45528;-47
2021/11/18 06:24:54;;;;;;;;;45.00;36.00;;;;;8.85;64.69;102608.72;4967586;28;45467;-44
2021/11/18 06:27:21;;;;;;;;;46.50;37.25;;;;;8.85;64.42;102613.09;4967449;28;45427;-45
2021/11/18 06:29:47;;;;;;;;;45.50;39.75;;;;;8.83;64.53;102606.91;4960519;28;45349;-44
2021/11/18 06:32:13;;;;;;;;;32.00;31.50;;;;;8.85;64.32;102610.47;4963251;28;45397;-45
2021/11/18 06:34:41;;;;;;;;;44.25;37.75;;;;;8.83;64.68;102612.16;4960668;28;45413;-46
2021/11/18 06:37:07;;;;;;;;;46.00;37.00;;;;;8.82;64.66;102613.00;4960461;28;45366;-43
2021/11/18 06:39:35;;;;;;;;;39.00;32.75;;;;;8.82;64.75;102615.63;4963072;28;46180;-43
2021/11/18 06:42:01;;;;;;;;;42.75;35.25;;;;;8.81;64.84;102622.63;4960892;28;45234;-47
2021/11/18 06:44:27;;;;;;;;;43.75;34.50;;;;;8.78;64.60;102623.44;4960573;28;45427;-40
2021/11/18 06:46:52;;;;;;;;;49.00;39.50;;;;;8.78;64.51;102626.06;4960332;28;45404;-47
2021/11/18 06:49:18;;;;;;;;;45.50;36.00;;;;;8.77;64.77;102624.28;4960309;28;45425;-45
2021/11/18 06:51:43;;;;;;;;;51.50;39.25;;;;;8.77;64.78;102632.16;4961279;28;45372;-44
2021/11/18 06:54:12;;;;;;;;;44.00;38.25;;;;;8.77;64.62;102633.91;4971658;28;45322;-43
2021/11/18 06:56:37;;;;;;;;;44.75;38.25;;;;;8.76;64.54;102630.38;4970242;28;45960;-46
2021/11/18 06:59:03;;;;;;;;;44.75;37.00;;;;;8.77;64.56;102626.91;4963397;28;45262;-46
2021/11/18 07:01:28;;;;;;;;;40.00;35.25;;;;;8.75;64.64;102633.88;4963396;28;45301;-45
2021/11/18 07:03:55;;;;;;;;;53.25;42.00;;;;;8.77;64.80;102636.50;4970421;28;45504;-48
2021/11/18 07:06:22;;;;;;;;;45.00;36.75;;;;;8.76;64.70;102646.09;4980947;28;45246;-45
2021/11/18 07:08:48;;;;;;;;;42.25;37.25;;;;;8.76;64.63;102651.34;4963229;28;46451;-45
2021/11/18 07:11:16;;;;;;;;;49.00;39.25;;;;;8.75;64.63;102652.22;4973982;28;45354;-44
2021/11/18 07:13:42;;;;;;;;;44.00;38.50;;;;;8.75;64.71;102644.34;4963692;28;45341;-47
2021/11/18 07:16:12;;;;;;;;;55.25;43.00;;;;;8.75;64.68;102648.69;4963153;28;45456;-47
2021/11/18 07:18:39;;;;;;;;;44.00;35.50;;;;;8.78;64.75;102665.38;4972970;28;46154;-47
2021/11/18 07:21:05;;;;;;;;;51.50;42.50;;;;;8.78;64.64;102656.66;4964632;28;45379;-41
2021/11/18 07:23:31;;;;;;;;;42.00;36.00;;;;;8.79;64.79;102658.38;4963272;28;45310;-42
2021/11/18 07:25:59;;;;;;;;;48.75;38.75;;;;;8.79;64.77;102661.00;4976591;28;45258;-45
2021/11/18 07:28:26;;;;;;;;;42.75;34.25;;;;;8.79;64.68;102655.78;4963262;28;45424;-44
2021/11/18 07:30:54;;;;;;;;;49.00;40.50;;;;;8.77;64.44;102653.13;4962937;28;45431;-44
2021/11/18 07:33:20;;;;;;;;;51.00;39.50;;;;;8.77;64.68;102655.75;4966126;28;45321;-42
2021/11/18 07:35:50;;;;;;;;;50.00;42.25;;;;;8.77;64.80;102647.88;4962932;28;45442;-43
2021/11/18 07:38:17;;;;;;;;;60.25;47.75;;;;;8.75;64.41;102648.69;4962728;28;46565;-43
2021/11/18 07:40:43;;;;;;;;;46.50;38.75;;;;;8.77;64.62;102654.88;4963302;28;45569;-43
2021/11/18 07:43:11;;;;;;;;;62.50;49.00;;;;;8.77;64.63;102654.88;4968355;28;45341;-45
2021/11/18 07:45:36;;;;;;;;;51.75;40.25;;;;;8.75;64.52;102657.47;4962607;28;45368;-41
2021/11/18 07:48:02;;;;;;;;;50.50;40.50;;;;;8.75;64.80;102649.59;4962795;28;45949;-45
2021/11/18 07:50:28;;;;;;;;;44.00;38.00;;;;;8.75;64.66;102657.47;4975521;28;45320;-45
2021/11/18 07:52:53;;;;;;;;;45.75;37.25;;;;;8.75;64.51;102652.22;4962659;28;45234;-45
2021/11/18 07:55:21;;;;;;;;;53.00;42.25;;;;;8.76;64.59;102661.81;4962582;28;45340;-45
2021/11/18 07:57:47;;;;;;;;;43.00;37.50;;;;;8.76;64.75;102653.97;4962661;28;45492;-44
2021/11/18 08:00:15;;;;;;;;;58.00;47.00;;;;;8.75;64.83;102657.47;4962450;28;45420;-45
2021/11/18 08:02:42;;;;;;;;;48.75;37.50;;;;;8.77;64.62;102662.72;4974209;28;45395;-44
2021/11/18 08:05:08;;;;;;;;;40.75;36.00;;;;;8.75;64.59;102662.69;4963834;28;45452;-42
2021/11/18 08:07:34;;;;;;;;;44.00;37.00;;;;;8.76;64.54;102661.81;4962283;28;46151;-44
2021/11/18 08:09:59;;;;;;;;;44.25;37.50;;;;;8.75;64.49;102662.69;4961938;28;45286;-43
2021/11/18 08:12:24;;;;;;;;;36.25;33.50;;;;;8.78;64.63;102668.00;4962462;28;45461;-43
2021/11/18 08:14:50;;;;;;;;;41.00;36.00;;;;;8.78;64.62;102681.09;4962339;28;45280;-44
2021/11/18 08:17:16;;;;;;;;;48.00;38.25;;;;;8.77;64.28;102674.09;4962265;28;46189;-41
2021/11/18 08:19:41;;;;;;;;;46.50;36.75;;;;;8.78;64.80;102682.84;4961078;28;45373;-44
2021/11/18 08:22:07;;;;;;;;;51.50;43.25;;;;;8.82;64.52;102689.03;4962342;28;45272;-45
2021/11/18 08:24:32;;;;;;;;;47.25;39.00;;;;;8.82;64.76;102689.94;4965953;28;45369;-43
2021/11/18 08:27:00;;;;;;;;;45.50;37.50;;;;;8.84;64.68;102684.72;4971859;28;45370;-44
2021/11/18 08:29:27;;;;;;;;;46.25;38.00;;;;;8.84;64.56;102684.72;4965602;28;45443;-43
2021/11/18 08:31:54;;;;;;;;;46.00;37.75;;;;;8.85;64.79;102695.25;4971877;28;45396;-42
2021/11/18 08:34:20;;;;;;;;;47.50;40.25;;;;;8.85;64.70;102691.75;4964175;28;45624;-43
2021/11/18 08:36:48;;;;;;;;;47.25;38.50;;;;;8.86;64.72;102681.28;4962179;28;45236;-45
2021/11/18 08:39:19;;;;;;;;;47.25;39.25;;;;;8.88;64.77;102694.44;4964883;28;45528;-45
2021/11/18 08:41:46;;;;;;;;;43.50;37.75;;;;;8.88;64.62;102684.84;4969542;28;45263;-44
2021/11/18 08:44:12;;;;;;;;;37.75;33.00;;;;;8.90;64.58;102684.88;4961923;28;45352;-43
2021/11/18 08:46:37;;;;;;;;;46.50;37.50;;;;;8.89;64.25;102689.25;4961897;28;46299;-41
2021/11/18 08:49:03;;;;;;;;;46.00;40.00;;;;;8.92;64.50;102694.56;4961775;28;45340;-44
2021/11/18 08:51:31;;;;;;;;;49.75;37.00;;;;;8.94;64.63;102695.47;4961982;28;45389;-46
2021/11/18 08:53:59;;;;;;;;;48.50;39.00;;;;;8.99;64.64;102705.19;4961491;28;45267;-44
2021/11/18 08:56:25;;;;;;;;;46.00;39.00;;;;;9.00;64.64;102705.22;4961553;28;45268;-45
2021/11/18 08:58:55;;;;;;;;;49.75;40.00;;;;;9.02;64.60;102708.78;4961963;28;45293;-45
2021/11/18 09:01:33;;;;;;;;;48.25;40.50;;;;;9.06;64.56;102705.38;4961724;28;45263;-41
2021/11/18 09:04:00;;;;;;;;;43.25;39.00;;;;;9.10;64.48;102704.56;4961747;28;45270;-42
2021/11/18 09:06:26;;;;;;;;;51.50;43.25;;;;;9.13;64.66;102709.00;4961440;28;46498;-41
2021/11/18 09:08:53;;;;;;;;;47.00;40.00;;;;;9.19;64.55;102703.91;4961424;28;45429;-45
2021/11/18 09:11:20;;;;;;;;;50.25;39.50;;;;;9.23;64.69;102702.25;4961710;28;45447;-43
2021/11/18 09:13:47;;;;;;;;;50.00;42.00;;;;;9.26;64.44;102704.94;4961632;28;45430;-43
2021/11/18 09:16:12;;;;;;;;;50.00;39.00;;;;;9.31;64.39;102705.03;4961405;28;46138;-45
2021/11/18 09:18:40;;;;;;;;;54.75;43.50;;;;;9.34;64.73;102706.00;4961546;28;45210;-43
2021/11/18 09:21:09;;;;;;;;;49.50;40.00;;;;;9.40;64.45;102703.50;4960661;28;45324;-45
2021/11/18 09:23:40;;;;;;;;;46.00;39.00;;;;;9.44;64.60;102707.97;4961263;28;45515;-45
2021/11/18 09:26:08;;;;;;;;;54.25;43.50;;;;;9.51;64.82;102714.25;4973783;28;47436;-45
2021/11/18 09:28:33;;;;;;;;;61.00;49.50;;;;;9.57;64.73;102717.00;4961449;28;45409;-44
2021/11/18 09:31:03;;;;;;;;;51.25;43.50;;;;;9.65;64.91;102709.28;4961339;28;45472;-44
2021/11/18 09:33:29;;;;;;;;;57.00;45.00;;;;;9.71;64.92;102696.28;4969817;28;45334;-44
2021/11/18 09:35:58;;;;;;;;;54.75;45.00;;;;;9.80;64.92;102707.81;4961073;28;46179;-43
2021/11/18 09:38:26;;;;;;;;;59.50;47.00;;;;;9.88;64.83;102719.38;4961029;28;45439;-43
2021/11/18 09:41:27;;;;;;;;;60.00;47.75;;;;;9.96;64.87;102715.19;4961839;28;45424;-45
2021/11/18 09:44:13;;;;;;;;;54.75;45.75;;;;;10.05;64.97;102717.97;4942792;28;45323;-44
2021/11/18 09:46:55;;;;;;;;;51.75;42.00;;;;;10.16;64.85;102727.81;4961143;28;45514;-43
2021/11/18 09:49:42;;;;;;;;;58.75;48.50;;;;;10.25;65.06;102730.59;4968868;28;45246;-43
2021/11/18 09:52:28;;;;;;;;;66.50;50.25;;;;;10.33;64.94;102723.75;4963018;28;46363;-46
2021/11/18 09:55:14;;;;;;;;;67.25;53.50;;;;;10.42;64.93;102711.69;4960617;28;45266;-44
2021/11/18 09:58:11;;;;;;;;;60.75;48.50;;;;;10.52;65.18;102713.63;4960895;28;46232;-44
2021/11/18 10:00:55;;;;;;;;;69.75;55.50;;;;;10.59;65.04;102712.88;4968572;28;45257;-44
2021/11/18 10:03:52;;;;;;;;;68.00;55.50;;;;;10.68;65.03;102709.50;4963897;28;45320;-44
2021/11/18 10:06:33;;;;;;;;;62.50;50.50;;;;;10.76;65.03;102714.91;4959526;28;45522;-44
2021/11/18 10:08:58;;;;;;;;;58.25;46.25;;;;;10.81;65.02;102716.72;4960657;28;46762;-44
2021/11/18 10:11:37;;;;;;;;;60.25;47.50;;;;;10.89;65.06;102719.47;4960773;28;45537;-45
2021/11/18 10:14:15;;;;;;;;;54.50;46.25;;;;;10.96;65.05;102721.34;4960838;28;45257;-43
2021/11/18 10:16:50;;;;;;;;;54.50;43.25;;;;;11.04;65.07;102719.72;4966418;28;45612;-43
2021/11/18 10:19:26;;;;;;;;;48.75;39.75;;;;;11.11;64.90;102715.44;4965428;28;47161;-42
2021/11/18 10:21:51;;;;;;;;;53.50;44.25;;;;;11.20;65.08;102733.13;4960756;28;45291;-42
2021/11/18 10:24:21;;;;;;;;;53.25;43.75;;;;;11.29;64.98;102724.47;4962212;28;45275;-45
2021/11/18 10:27:22;;;;;;;;;53.75;42.75;;;;;11.37;64.91;102728.97;4972068;28;45412;-43
2021/11/18 10:29:56;;;;;;;;;53.00;44.25;;;;;11.47;65.00;102735.28;4941710;28;46174;-43
2021/11/18 10:32:27;;;;;;;;;48.25;40.75;;;;;11.54;65.02;102729.19;4965614;28;45364;-46
2021/11/18 10:35:19;;;;;;;;;52.00;42.50;;;;;11.64;65.19;102734.59;4977272;28;45192;-42
2021/11/18 10:37:49;;;;;;;;;44.25;36.50;;;;;11.74;65.07;102733.84;4971613;28;45291;-44
2021/11/18 10:40:28;;;;;;;;;52.25;41.25;;;;;11.85;64.99;102736.63;4975113;28;46283;-44
2021/11/18 10:43:03;;;;;;;;;53.25;44.25;;;;;11.93;65.03;102732.31;4974498;28;45479;-44
2021/11/18 10:45:37;;;;;;;;;52.50;43.00;;;;;12.03;64.83;102738.63;4983195;28;45484;-44
2021/11/18 10:48:05;;;;;;;;;51.75;41.25;;;;;12.12;64.86;102745.75;4979816;28;45484;-44
2021/11/18 10:50:30;;;;;;;;;53.75;43.50;;;;;12.21;64.98;102737.94;4972411;28;46184;-45
2021/11/18 10:53:02;;;;;;;;;51.50;43.00;;;;;12.30;64.81;102745.97;4973108;28;45570;-43
2021/11/18 10:55:35;;;;;;;;;50.75;42.00;;;;;12.41;65.09;102737.28;4977922;28;45337;-42
2021/11/18 10:58:04;;;;;;;;;56.50;45.25;;;;;12.50;65.15;102740.91;4982665;28;45595;-42
2021/11/18 11:00:41;;;;;;;;;53.00;42.25;;;;;12.64;64.70;102742.75;4978747;28;46978;-41
2021/11/18 11:03:33;;;;;;;;;54.75;43.75;;;;;12.77;64.86;102746.41;4977732;28;45425;-42
2021/11/18 11:06:32;;;;;;;;;55.00;44.25;;;;;12.91;65.04;102742.09;4971373;28;45467;-42
2021/11/18 11:09:07;;;;;;;;;59.25;48.00;;;;;13.04;64.74;102740.44;4976889;28;45442;-45
2021/11/18 11:11:51;;;;;;;;;55.50;44.75;;;;;13.16;64.99;102745.81;4973296;28;46216;-42
2021/11/18 11:14:26;;;;;;;;;56.50;44.75;;;;;13.29;65.04;102741.50;4982981;28;45524;-44
2021/11/18 11:17:23;;;;;;;;;52.00;43.25;;;;;13.41;64.89;102735.44;4978356;28;45259;-42
2021/11/18 11:20:25;;;;;;;;;49.00;40.00;;;;;13.53;64.94;102734.63;4973949;28;45416;-42
2021/11/18 11:22:57;;;;;;;;;55.25;43.75;;;;;13.61;64.41;102732.91;4977805;28;46392;-42